sensor_id;sensor_type;location;lat;lon;timestamp;temperature;humidity
14401;DHT22;7285;50.894;5.462;2022-10-04T00:01:54;9.70;1.00
14401;DHT22;7285;50.894;5.462;2022-10-04T00:04:25;9.70;1.00
14401;DHT22;7285;50.894;5.462;2022-10-04T00:06:59;9.70;1.00
14401;DHT22;7285;50.894;5.462;2022-10-04T00:09:32;9.70;1.00
14401;DHT22;7285;50.894;5.462;2022-10-04T00:12:02;9.70;1.00
14401;DHT22;7285;50.894;5.462;2022-10-04T00:14:31;9.70;1.00
14401;DHT22;7285;50.894;5.462;2022-10-04T00:17:00;9.70;1.00
14401;DHT22;7285;50.894;5.462;2022-10-04T00:19:42;9.80;75.80
14401;DHT22;7285;50.894;5.462;2022-10-04T00:22:21;9.80;34.70
14401;DHT22;7285;50.894;5.462;2022-10-04T00:25:17;9.70;72.90
14401;DHT22;7285;50.894;5.462;2022-10-04T00:31:16;9.80;99.90
14401;DHT22;7285;50.894;5.462;2022-10-04T00:33:45;9.80;99.90
14401;DHT22;7285;50.894;5.462;2022-10-04T00:36:46;9.80;99.90
14401;DHT22;7285;50.894;5.462;2022-10-04T00:39:39;9.80;99.90
14401;DHT22;7285;50.894;5.462;2022-10-04T00:42:22;9.70;99.90
14401;DHT22;7285;50.894;5.462;2022-10-04T00:44:55;9.70;5.00
14401;DHT22;7285;50.894;5.462;2022-10-04T00:47:26;9.70;1.00
14401;DHT22;7285;50.894;5.462;2022-10-04T00:50:01;9.70;1.00
14401;DHT22;7285;50.894;5.462;2022-10-04T00:52:33;9.70;1.00
14401;DHT22;7285;50.894;5.462;2022-10-04T00:55:04;9.60;1.00
14401;DHT22;7285;50.894;5.462;2022-10-04T00:57:38;9.60;1.00
14401;DHT22;7285;50.894;5.462;2022-10-04T01:00:10;9.60;1.00
14401;DHT22;7285;50.894;5.462;2022-10-04T01:02:47;9.50;1.00
14401;DHT22;7285;50.894;5.462;2022-10-04T01:05:19;9.50;99.90
14401;DHT22;7285;50.894;5.462;2022-10-04T01:07:49;9.50;99.90
14401;DHT22;7285;50.894;5.462;2022-10-04T01:10:19;9.50;99.90
14401;DHT22;7285;50.894;5.462;2022-10-04T01:12:51;9.40;1.00
14401;DHT22;7285;50.894;5.462;2022-10-04T01:15:25;9.30;1.00
14401;DHT22;7285;50.894;5.462;2022-10-04T01:18:10;9.30;1.00
14401;DHT22;7285;50.894;5.462;2022-10-04T01:20:40;9.30;1.00
14401;DHT22;7285;50.894;5.462;2022-10-04T01:23:31;9.30;1.00
14401;DHT22;7285;50.894;5.462;2022-10-04T01:25:58;9.30;1.00
14401;DHT22;7285;50.894;5.462;2022-10-04T01:28:26;9.20;1.00
14401;DHT22;7285;50.894;5.462;2022-10-04T01:30:54;9.20;1.00
14401;DHT22;7285;50.894;5.462;2022-10-04T01:33:21;9.20;1.00
14401;DHT22;7285;50.894;5.462;2022-10-04T01:35:50;9.10;99.90
14401;DHT22;7285;50.894;5.462;2022-10-04T01:38:17;9.00;99.90
14401;DHT22;7285;50.894;5.462;2022-10-04T01:40:50;9.10;99.90
14401;DHT22;7285;50.894;5.462;2022-10-04T01:43:24;9.00;97.90
14401;DHT22;7285;50.894;5.462;2022-10-04T01:45:57;8.90;1.00
14401;DHT22;7285;50.894;5.462;2022-10-04T01:48:31;8.80;1.00
14401;DHT22;7285;50.894;5.462;2022-10-04T01:51:01;8.80;1.00
14401;DHT22;7285;50.894;5.462;2022-10-04T01:53:33;8.80;1.00
14401;DHT22;7285;50.894;5.462;2022-10-04T01:56:05;8.80;1.00
14401;DHT22;7285;50.894;5.462;2022-10-04T01:58:39;8.80;99.90
14401;DHT22;7285;50.894;5.462;2022-10-04T02:01:11;8.80;99.90
14401;DHT22;7285;50.894;5.462;2022-10-04T02:03:41;8.80;1.00
14401;DHT22;7285;50.894;5.462;2022-10-04T02:06:09;8.80;1.00
14401;DHT22;7285;50.894;5.462;2022-10-04T02:08:43;8.70;99.90
14401;DHT22;7285;50.894;5.462;2022-10-04T02:11:16;8.60;99.90
14401;DHT22;7285;50.894;5.462;2022-10-04T02:13:46;8.60;99.90
14401;DHT22;7285;50.894;5.462;2022-10-04T02:16:15;8.60;99.90
14401;DHT22;7285;50.894;5.462;2022-10-04T02:18:43;8.60;99.90
14401;DHT22;7285;50.894;5.462;2022-10-04T02:21:12;8.60;1.00
14401;DHT22;7285;50.894;5.462;2022-10-04T02:23:40;8.60;1.00
14401;DHT22;7285;50.894;5.462;2022-10-04T02:26:09;8.50;1.00
14401;DHT22;7285;50.894;5.462;2022-10-04T02:28:37;8.50;1.00
14401;DHT22;7285;50.894;5.462;2022-10-04T02:31:05;8.50;1.00
14401;DHT22;7285;50.894;5.462;2022-10-04T02:33:52;8.40;1.00
14401;DHT22;7285;50.894;5.462;2022-10-04T02:36:23;8.40;1.00
14401;DHT22;7285;50.894;5.462;2022-10-04T02:38:56;8.40;1.00
14401;DHT22;7285;50.894;5.462;2022-10-04T02:41:29;8.40;1.00
14401;DHT22;7285;50.894;5.462;2022-10-04T02:44:02;8.40;1.00
14401;DHT22;7285;50.894;5.462;2022-10-04T02:46:42;8.40;1.00
14401;DHT22;7285;50.894;5.462;2022-10-04T02:49:18;8.30;1.00
14401;DHT22;7285;50.894;5.462;2022-10-04T02:51:50;8.30;1.00
14401;DHT22;7285;50.894;5.462;2022-10-04T02:54:25;8.30;1.00
14401;DHT22;7285;50.894;5.462;2022-10-04T02:56:55;8.30;20.50
14401;DHT22;7285;50.894;5.462;2022-10-04T02:59:24;8.30;99.90
14401;DHT22;7285;50.894;5.462;2022-10-04T03:01:54;8.30;99.90
14401;DHT22;7285;50.894;5.462;2022-10-04T03:04:23;8.30;99.90
14401;DHT22;7285;50.894;5.462;2022-10-04T03:06:51;8.30;99.90
14401;DHT22;7285;50.894;5.462;2022-10-04T03:09:20;8.20;48.10
14401;DHT22;7285;50.894;5.462;2022-10-04T03:11:49;8.20;99.90
14401;DHT22;7285;50.894;5.462;2022-10-04T03:14:18;8.20;11.00
14401;DHT22;7285;50.894;5.462;2022-10-04T03:16:49;8.20;1.00
14401;DHT22;7285;50.894;5.462;2022-10-04T03:19:19;8.10;1.00
14401;DHT22;7285;50.894;5.462;2022-10-04T03:21:50;8.00;1.00
14401;DHT22;7285;50.894;5.462;2022-10-04T03:24:19;8.00;1.00
14401;DHT22;7285;50.894;5.462;2022-10-04T03:26:49;8.00;1.00
14401;DHT22;7285;50.894;5.462;2022-10-04T03:29:18;7.90;1.00
14401;DHT22;7285;50.894;5.462;2022-10-04T03:31:50;7.80;99.90
14401;DHT22;7285;50.894;5.462;2022-10-04T03:34:22;7.90;99.90
14401;DHT22;7285;50.894;5.462;2022-10-04T03:36:52;7.80;99.90
14401;DHT22;7285;50.894;5.462;2022-10-04T03:39:26;7.80;99.90
14401;DHT22;7285;50.894;5.462;2022-10-04T03:41:54;7.70;1.00
14401;DHT22;7285;50.894;5.462;2022-10-04T03:44:22;7.70;1.00
14401;DHT22;7285;50.894;5.462;2022-10-04T03:46:51;7.70;1.00
14401;DHT22;7285;50.894;5.462;2022-10-04T03:49:27;7.60;1.00
14401;DHT22;7285;50.894;5.462;2022-10-04T03:51:56;7.60;1.00
14401;DHT22;7285;50.894;5.462;2022-10-04T03:54:25;7.60;22.10
14401;DHT22;7285;50.894;5.462;2022-10-04T03:56:54;7.60;1.00
14401;DHT22;7285;50.894;5.462;2022-10-04T03:59:23;7.60;1.00
14401;DHT22;7285;50.894;5.462;2022-10-04T04:02:04;7.50;1.00
14401;DHT22;7285;50.894;5.462;2022-10-04T04:04:41;7.50;1.00
14401;DHT22;7285;50.894;5.462;2022-10-04T04:07:11;7.50;1.00
14401;DHT22;7285;50.894;5.462;2022-10-04T04:09:43;7.50;1.00
14401;DHT22;7285;50.894;5.462;2022-10-04T04:12:20;7.50;47.30
14401;DHT22;7285;50.894;5.462;2022-10-04T04:14:49;7.50;99.90
14401;DHT22;7285;50.894;5.462;2022-10-04T04:17:38;7.50;1.00
14401;DHT22;7285;50.894;5.462;2022-10-04T04:20:16;7.60;1.00
14401;DHT22;7285;50.894;5.462;2022-10-04T04:22:45;7.50;1.00
14401;DHT22;7285;50.894;5.462;2022-10-04T04:25:15;7.50;1.00
14401;DHT22;7285;50.894;5.462;2022-10-04T04:27:45;7.50;1.00
14401;DHT22;7285;50.894;5.462;2022-10-04T04:30:16;7.40;1.00
14401;DHT22;7285;50.894;5.462;2022-10-04T04:32:48;7.40;1.00
14401;DHT22;7285;50.894;5.462;2022-10-04T04:35:22;7.40;1.00
14401;DHT22;7285;50.894;5.462;2022-10-04T04:38:05;7.30;1.00
14401;DHT22;7285;50.894;5.462;2022-10-04T04:40:33;7.30;1.00
14401;DHT22;7285;50.894;5.462;2022-10-04T04:43:02;7.40;1.00
14401;DHT22;7285;50.894;5.462;2022-10-04T04:45:31;7.40;1.00
14401;DHT22;7285;50.894;5.462;2022-10-04T04:48:01;7.40;64.10
14401;DHT22;7285;50.894;5.462;2022-10-04T04:50:31;7.40;99.90
14401;DHT22;7285;50.894;5.462;2022-10-04T04:53:05;7.40;99.90
14401;DHT22;7285;50.894;5.462;2022-10-04T04:55:38;7.40;71.70
14401;DHT22;7285;50.894;5.462;2022-10-04T04:58:07;7.30;1.00
14401;DHT22;7285;50.894;5.462;2022-10-04T05:00:37;7.20;1.00
14401;DHT22;7285;50.894;5.462;2022-10-04T05:03:17;7.20;1.00
14401;DHT22;7285;50.894;5.462;2022-10-04T05:05:45;7.20;1.00
14401;DHT22;7285;50.894;5.462;2022-10-04T05:08:14;7.20;1.00
14401;DHT22;7285;50.894;5.462;2022-10-04T05:10:44;7.20;1.00
14401;DHT22;7285;50.894;5.462;2022-10-04T05:13:12;7.10;99.90
14401;DHT22;7285;50.894;5.462;2022-10-04T05:15:40;7.10;99.90
14401;DHT22;7285;50.894;5.462;2022-10-04T05:18:20;7.10;1.00
14401;DHT22;7285;50.894;5.462;2022-10-04T05:20:51;7.20;1.00
14401;DHT22;7285;50.894;5.462;2022-10-04T05:23:19;7.20;1.00
14401;DHT22;7285;50.894;5.462;2022-10-04T05:25:47;7.10;1.00
14401;DHT22;7285;50.894;5.462;2022-10-04T05:28:15;7.20;1.00
14401;DHT22;7285;50.894;5.462;2022-10-04T05:30:53;7.10;1.00
14401;DHT22;7285;50.894;5.462;2022-10-04T05:33:36;7.10;1.00
14401;DHT22;7285;50.894;5.462;2022-10-04T05:36:37;7.10;1.00
14401;DHT22;7285;50.894;5.462;2022-10-04T05:39:15;7.10;1.00
14401;DHT22;7285;50.894;5.462;2022-10-04T05:41:49;7.10;1.00
14401;DHT22;7285;50.894;5.462;2022-10-04T05:44:28;7.00;1.00
14401;DHT22;7285;50.894;5.462;2022-10-04T05:46:58;7.00;1.00
14401;DHT22;7285;50.894;5.462;2022-10-04T05:49:29;7.00;1.00
14401;DHT22;7285;50.894;5.462;2022-10-04T05:52:00;7.00;1.00
14401;DHT22;7285;50.894;5.462;2022-10-04T05:54:29;7.00;1.00
14401;DHT22;7285;50.894;5.462;2022-10-04T05:57:20;7.00;1.00
14401;DHT22;7285;50.894;5.462;2022-10-04T06:00:08;7.00;1.00
14401;DHT22;7285;50.894;5.462;2022-10-04T06:05:47;6.90;1.00
14401;DHT22;7285;50.894;5.462;2022-10-04T06:08:28;6.90;99.90
14401;DHT22;7285;50.894;5.462;2022-10-04T06:11:06;6.90;1.00
14401;DHT22;7285;50.894;5.462;2022-10-04T06:14:11;7.00;1.00
14401;DHT22;7285;50.894;5.462;2022-10-04T06:16:53;7.00;1.00
14401;DHT22;7285;50.894;5.462;2022-10-04T06:22:46;7.00;1.00
14401;DHT22;7285;50.894;5.462;2022-10-04T06:25:19;7.00;1.00
14401;DHT22;7285;50.894;5.462;2022-10-04T06:27:53;7.00;1.00
14401;DHT22;7285;50.894;5.462;2022-10-04T06:30:22;7.10;10.30
14401;DHT22;7285;50.894;5.462;2022-10-04T06:33:12;7.10;92.40
14401;DHT22;7285;50.894;5.462;2022-10-04T06:35:57;7.10;96.80
14401;DHT22;7285;50.894;5.462;2022-10-04T06:38:50;7.20;99.90
14401;DHT22;7285;50.894;5.462;2022-10-04T06:41:43;7.30;1.00
14401;DHT22;7285;50.894;5.462;2022-10-04T06:44:29;7.30;1.00
14401;DHT22;7285;50.894;5.462;2022-10-04T06:47:08;7.40;1.00
14401;DHT22;7285;50.894;5.462;2022-10-04T06:49:45;7.50;84.80
14401;DHT22;7285;50.894;5.462;2022-10-04T06:52:45;7.60;99.90
14401;DHT22;7285;50.894;5.462;2022-10-04T06:55:49;7.70;1.00
14401;DHT22;7285;50.894;5.462;2022-10-04T06:58:33;7.90;1.00
14401;DHT22;7285;50.894;5.462;2022-10-04T07:01:08;7.90;1.00
14401;DHT22;7285;50.894;5.462;2022-10-04T07:03:48;8.00;1.00
14401;DHT22;7285;50.894;5.462;2022-10-04T07:06:21;8.10;1.00
14401;DHT22;7285;50.894;5.462;2022-10-04T07:08:50;8.20;1.00
14401;DHT22;7285;50.894;5.462;2022-10-04T07:11:24;8.40;1.00
14401;DHT22;7285;50.894;5.462;2022-10-04T07:13:53;8.60;99.90
14401;DHT22;7285;50.894;5.462;2022-10-04T07:16:33;8.60;99.90
14401;DHT22;7285;50.894;5.462;2022-10-04T07:19:16;8.80;99.90
14401;DHT22;7285;50.894;5.462;2022-10-04T07:21:54;8.90;99.90
14401;DHT22;7285;50.894;5.462;2022-10-04T07:24:26;9.00;99.90
14401;DHT22;7285;50.894;5.462;2022-10-04T07:27:00;9.00;59.00
14401;DHT22;7285;50.894;5.462;2022-10-04T07:29:32;9.10;1.00
14401;DHT22;7285;50.894;5.462;2022-10-04T07:32:10;9.10;1.00
14401;DHT22;7285;50.894;5.462;2022-10-04T07:34:43;9.10;1.00
14401;DHT22;7285;50.894;5.462;2022-10-04T07:37:12;9.20;99.90
14401;DHT22;7285;50.894;5.462;2022-10-04T07:39:44;9.20;99.90
14401;DHT22;7285;50.894;5.462;2022-10-04T07:42:21;9.30;99.90
14401;DHT22;7285;50.894;5.462;2022-10-04T07:45:08;9.50;99.90
14401;DHT22;7285;50.894;5.462;2022-10-04T07:47:36;9.80;99.90
14401;DHT22;7285;50.894;5.462;2022-10-04T07:50:19;10.00;99.90
14401;DHT22;7285;50.894;5.462;2022-10-04T07:52:51;10.30;1.00
14401;DHT22;7285;50.894;5.462;2022-10-04T07:55:26;10.50;99.90
14401;DHT22;7285;50.894;5.462;2022-10-04T07:58:10;10.70;1.00
14401;DHT22;7285;50.894;5.462;2022-10-04T08:00:47;10.90;99.80
14401;DHT22;7285;50.894;5.462;2022-10-04T08:03:29;11.10;99.90
14401;DHT22;7285;50.894;5.462;2022-10-04T08:06:08;11.20;1.00
14401;DHT22;7285;50.894;5.462;2022-10-04T08:08:51;11.40;1.00
14401;DHT22;7285;50.894;5.462;2022-10-04T08:11:29;11.60;1.00
14401;DHT22;7285;50.894;5.462;2022-10-04T08:14:07;11.80;99.90
14401;DHT22;7285;50.894;5.462;2022-10-04T08:16:36;11.90;99.90
14401;DHT22;7285;50.894;5.462;2022-10-04T08:19:29;12.10;99.90
14401;DHT22;7285;50.894;5.462;2022-10-04T08:22:04;12.20;99.90
14401;DHT22;7285;50.894;5.462;2022-10-04T08:24:35;12.40;1.00
14401;DHT22;7285;50.894;5.462;2022-10-04T08:27:26;12.50;1.00
14401;DHT22;7285;50.894;5.462;2022-10-04T08:30:03;12.70;1.00
14401;DHT22;7285;50.894;5.462;2022-10-04T08:32:41;12.80;1.00
14401;DHT22;7285;50.894;5.462;2022-10-04T08:35:28;13.10;1.00
14401;DHT22;7285;50.894;5.462;2022-10-04T08:38:33;13.20;1.00
14401;DHT22;7285;50.894;5.462;2022-10-04T08:44:41;13.60;99.90
14401;DHT22;7285;50.894;5.462;2022-10-04T08:50:54;13.90;1.00
14401;DHT22;7285;50.894;5.462;2022-10-04T08:54:00;14.20;1.00
14401;DHT22;7285;50.894;5.462;2022-10-04T08:56:48;14.20;1.00
14401;DHT22;7285;50.894;5.462;2022-10-04T08:59:43;14.40;1.00
14401;DHT22;7285;50.894;5.462;2022-10-04T09:05:59;14.60;1.00
14401;DHT22;7285;50.894;5.462;2022-10-04T09:11:58;14.90;99.90
14401;DHT22;7285;50.894;5.462;2022-10-04T09:14:58;15.10;99.90
14401;DHT22;7285;50.894;5.462;2022-10-04T09:17:38;15.30;99.90
14401;DHT22;7285;50.894;5.462;2022-10-04T09:20:21;15.50;99.90
14401;DHT22;7285;50.894;5.462;2022-10-04T09:22:54;15.70;99.90
14401;DHT22;7285;50.894;5.462;2022-10-04T09:25:46;15.90;99.90
14401;DHT22;7285;50.894;5.462;2022-10-04T09:34:40;16.20;99.90
14401;DHT22;7285;50.894;5.462;2022-10-04T09:37:31;16.20;99.90
14401;DHT22;7285;50.894;5.462;2022-10-04T09:43:49;16.30;72.80
14401;DHT22;7285;50.894;5.462;2022-10-04T09:46:51;16.60;89.60
14401;DHT22;7285;50.894;5.462;2022-10-04T09:49:36;16.80;48.80
14401;DHT22;7285;50.894;5.462;2022-10-04T09:52:19;17.00;7.30
14401;DHT22;7285;50.894;5.462;2022-10-04T09:58:05;17.30;13.00
14401;DHT22;7285;50.894;5.462;2022-10-04T10:00:40;17.10;1.00
14401;DHT22;7285;50.894;5.462;2022-10-04T10:06:28;16.90;1.00
14401;DHT22;7285;50.894;5.462;2022-10-04T10:09:09;17.10;1.00
14401;DHT22;7285;50.894;5.462;2022-10-04T10:11:46;17.30;1.00
14401;DHT22;7285;50.894;5.462;2022-10-04T10:14:58;17.50;1.00
14401;DHT22;7285;50.894;5.462;2022-10-04T10:17:33;17.90;1.00
14401;DHT22;7285;50.894;5.462;2022-10-04T10:20:31;18.10;1.00
14401;DHT22;7285;50.894;5.462;2022-10-04T10:23:34;18.50;1.00
14401;DHT22;7285;50.894;5.462;2022-10-04T10:26:19;18.40;1.00
14401;DHT22;7285;50.894;5.462;2022-10-04T10:29:13;18.50;1.00
14401;DHT22;7285;50.894;5.462;2022-10-04T10:32:03;18.60;1.00
14401;DHT22;7285;50.894;5.462;2022-10-04T10:34:47;18.50;1.00
14401;DHT22;7285;50.894;5.462;2022-10-04T10:37:26;18.80;1.00
14401;DHT22;7285;50.894;5.462;2022-10-04T10:40:22;19.10;1.00
14401;DHT22;7285;50.894;5.462;2022-10-04T10:43:14;18.90;1.00
14401;DHT22;7285;50.894;5.462;2022-10-04T10:45:53;19.30;1.00
14401;DHT22;7285;50.894;5.462;2022-10-04T10:48:44;19.60;1.00
14401;DHT22;7285;50.894;5.462;2022-10-04T10:51:17;19.80;1.00
14401;DHT22;7285;50.894;5.462;2022-10-04T10:54:15;19.70;1.00
14401;DHT22;7285;50.894;5.462;2022-10-04T10:57:00;19.90;1.00
14401;DHT22;7285;50.894;5.462;2022-10-04T11:00:19;20.00;1.00
14401;DHT22;7285;50.894;5.462;2022-10-04T11:06:14;20.80;1.00
14401;DHT22;7285;50.894;5.462;2022-10-04T11:09:24;21.10;1.00
14401;DHT22;7285;50.894;5.462;2022-10-04T11:12:16;21.00;1.00
14401;DHT22;7285;50.894;5.462;2022-10-04T11:17:58;20.90;1.00
14401;DHT22;7285;50.894;5.462;2022-10-04T11:24:12;21.50;1.00
14401;DHT22;7285;50.894;5.462;2022-10-04T11:27:00;21.20;1.00
14401;DHT22;7285;50.894;5.462;2022-10-04T11:29:55;21.90;1.00
14401;DHT22;7285;50.894;5.462;2022-10-04T11:35:42;22.20;1.00
14401;DHT22;7285;50.894;5.462;2022-10-04T11:38:26;22.70;1.00
14401;DHT22;7285;50.894;5.462;2022-10-04T11:41:11;22.40;1.00
14401;DHT22;7285;50.894;5.462;2022-10-04T11:43:54;22.60;1.00
14401;DHT22;7285;50.894;5.462;2022-10-04T11:46:34;23.00;1.00
14401;DHT22;7285;50.894;5.462;2022-10-04T11:49:14;23.20;1.00
14401;DHT22;7285;50.894;5.462;2022-10-04T11:52:13;23.10;1.00
14401;DHT22;7285;50.894;5.462;2022-10-04T11:55:04;22.80;1.00
14401;DHT22;7285;50.894;5.462;2022-10-04T11:57:43;22.50;1.00
14401;DHT22;7285;50.894;5.462;2022-10-04T12:00:14;22.40;1.00
14401;DHT22;7285;50.894;5.462;2022-10-04T12:03:10;22.80;1.00
14401;DHT22;7285;50.894;5.462;2022-10-04T12:08:57;22.50;1.00
14401;DHT22;7285;50.894;5.462;2022-10-04T12:15:11;22.60;1.00
14401;DHT22;7285;50.894;5.462;2022-10-04T12:21:19;22.90;1.00
14401;DHT22;7285;50.894;5.462;2022-10-04T12:24:13;22.40;1.00
14401;DHT22;7285;50.894;5.462;2022-10-04T12:33:07;21.40;1.00
14401;DHT22;7285;50.894;5.462;2022-10-04T12:35:47;21.50;1.00
14401;DHT22;7285;50.894;5.462;2022-10-04T12:38:33;21.70;1.00
14401;DHT22;7285;50.894;5.462;2022-10-04T12:41:11;22.10;1.00
14401;DHT22;7285;50.894;5.462;2022-10-04T12:43:48;22.30;1.00
14401;DHT22;7285;50.894;5.462;2022-10-04T12:46:25;22.40;1.00
14401;DHT22;7285;50.894;5.462;2022-10-04T12:49:05;23.00;1.00
14401;DHT22;7285;50.894;5.462;2022-10-04T12:51:41;23.40;1.00
14401;DHT22;7285;50.894;5.462;2022-10-04T12:54:29;23.60;1.00
14401;DHT22;7285;50.894;5.462;2022-10-04T12:57:05;23.50;1.00
14401;DHT22;7285;50.894;5.462;2022-10-04T12:59:45;23.60;1.00
14401;DHT22;7285;50.894;5.462;2022-10-04T13:02:24;24.20;1.00
14401;DHT22;7285;50.894;5.462;2022-10-04T13:05:00;24.90;1.00
14401;DHT22;7285;50.894;5.462;2022-10-04T13:07:41;25.10;1.00
14401;DHT22;7285;50.894;5.462;2022-10-04T13:10:28;25.50;1.00
14401;DHT22;7285;50.894;5.462;2022-10-04T13:13:19;25.30;1.00
14401;DHT22;7285;50.894;5.462;2022-10-04T13:15:52;26.10;1.00
14401;DHT22;7285;50.894;5.462;2022-10-04T13:18:28;25.40;1.00
14401;DHT22;7285;50.894;5.462;2022-10-04T13:21:02;25.90;1.00
14401;DHT22;7285;50.894;5.462;2022-10-04T13:23:41;25.90;1.00
14401;DHT22;7285;50.894;5.462;2022-10-04T13:26:36;25.40;1.00
14401;DHT22;7285;50.894;5.462;2022-10-04T13:29:13;25.60;1.00
14401;DHT22;7285;50.894;5.462;2022-10-04T13:31:47;24.80;1.00
14401;DHT22;7285;50.894;5.462;2022-10-04T13:34:24;24.80;1.00
14401;DHT22;7285;50.894;5.462;2022-10-04T13:37:18;24.40;1.00
14401;DHT22;7285;50.894;5.462;2022-10-04T13:42:50;23.60;1.00
14401;DHT22;7285;50.894;5.462;2022-10-04T13:54:11;23.30;1.00
14401;DHT22;7285;50.894;5.462;2022-10-04T13:57:10;23.40;1.00
14401;DHT22;7285;50.894;5.462;2022-10-04T13:59:44;23.60;1.00
14401;DHT22;7285;50.894;5.462;2022-10-04T14:02:41;23.70;1.00
14401;DHT22;7285;50.894;5.462;2022-10-04T14:08:49;23.30;1.00
14401;DHT22;7285;50.894;5.462;2022-10-04T14:11:38;23.10;1.00
14401;DHT22;7285;50.894;5.462;2022-10-04T14:14:32;23.00;1.00
14401;DHT22;7285;50.894;5.462;2022-10-04T14:17:24;22.60;1.00
14401;DHT22;7285;50.894;5.462;2022-10-04T14:20:10;22.20;1.00
14401;DHT22;7285;50.894;5.462;2022-10-04T14:23:06;22.10;1.00
14401;DHT22;7285;50.894;5.462;2022-10-04T14:32:00;22.30;1.00
14401;DHT22;7285;50.894;5.462;2022-10-04T14:35:01;22.10;1.00
14401;DHT22;7285;50.894;5.462;2022-10-04T14:38:06;21.40;1.00
14401;DHT22;7285;50.894;5.462;2022-10-04T14:41:00;21.30;1.00
14401;DHT22;7285;50.894;5.462;2022-10-04T14:43:58;21.60;1.00
14401;DHT22;7285;50.894;5.462;2022-10-04T14:46:40;21.60;1.00
14401;DHT22;7285;50.894;5.462;2022-10-04T14:49:20;21.90;1.00
14401;DHT22;7285;50.894;5.462;2022-10-04T14:52:02;22.10;1.00
14401;DHT22;7285;50.894;5.462;2022-10-04T14:54:41;22.30;1.00
14401;DHT22;7285;50.894;5.462;2022-10-04T14:57:15;22.20;1.00
14401;DHT22;7285;50.894;5.462;2022-10-04T15:00:04;22.30;1.00
14401;DHT22;7285;50.894;5.462;2022-10-04T15:08:52;21.60;1.00
14401;DHT22;7285;50.894;5.462;2022-10-04T15:11:43;21.50;1.00
14401;DHT22;7285;50.894;5.462;2022-10-04T15:14:43;21.50;1.00
14401;DHT22;7285;50.894;5.462;2022-10-04T15:17:32;21.50;1.00
14401;DHT22;7285;50.894;5.462;2022-10-04T15:20:14;21.60;1.00
14401;DHT22;7285;50.894;5.462;2022-10-04T15:22:50;21.60;1.00
14401;DHT22;7285;50.894;5.462;2022-10-04T15:25:38;21.70;1.00
14401;DHT22;7285;50.894;5.462;2022-10-04T15:28:14;21.80;1.00
14401;DHT22;7285;50.894;5.462;2022-10-04T15:30:51;22.60;1.00
14401;DHT22;7285;50.894;5.462;2022-10-04T15:33:27;23.00;1.00
14401;DHT22;7285;50.894;5.462;2022-10-04T15:36:13;21.60;1.00
14401;DHT22;7285;50.894;5.462;2022-10-04T15:38:49;21.10;1.00
14401;DHT22;7285;50.894;5.462;2022-10-04T15:41:27;20.80;1.00
14401;DHT22;7285;50.894;5.462;2022-10-04T15:47:14;19.80;1.00
14401;DHT22;7285;50.894;5.462;2022-10-04T15:49:59;19.60;1.00
14401;DHT22;7285;50.894;5.462;2022-10-04T15:53:01;19.60;1.00
14401;DHT22;7285;50.894;5.462;2022-10-04T15:55:50;19.40;1.00
14401;DHT22;7285;50.894;5.462;2022-10-04T15:58:45;19.20;1.00
14401;DHT22;7285;50.894;5.462;2022-10-04T16:01:48;19.00;1.00
14401;DHT22;7285;50.894;5.462;2022-10-04T16:04:40;18.80;1.00
14401;DHT22;7285;50.894;5.462;2022-10-04T16:07:35;18.60;1.00
14401;DHT22;7285;50.894;5.462;2022-10-04T16:10:23;18.60;1.00
14401;DHT22;7285;50.894;5.462;2022-10-04T16:13:16;18.40;1.00
14401;DHT22;7285;50.894;5.462;2022-10-04T16:15:45;18.20;1.00
14401;DHT22;7285;50.894;5.462;2022-10-04T16:18:30;18.20;1.00
14401;DHT22;7285;50.894;5.462;2022-10-04T16:21:13;18.10;1.00
14401;DHT22;7285;50.894;5.462;2022-10-04T16:23:43;18.00;1.00
14401;DHT22;7285;50.894;5.462;2022-10-04T16:26:11;17.90;1.00
14401;DHT22;7285;50.894;5.462;2022-10-04T16:29:06;17.70;1.00
14401;DHT22;7285;50.894;5.462;2022-10-04T16:31:47;17.70;1.00
14401;DHT22;7285;50.894;5.462;2022-10-04T16:34:28;17.60;1.00
14401;DHT22;7285;50.894;5.462;2022-10-04T16:37:03;17.50;1.00
14401;DHT22;7285;50.894;5.462;2022-10-04T16:39:47;17.30;1.00
14401;DHT22;7285;50.894;5.462;2022-10-04T16:42:48;17.30;1.00
14401;DHT22;7285;50.894;5.462;2022-10-04T16:46:02;17.10;1.00
14401;DHT22;7285;50.894;5.462;2022-10-04T16:48:38;16.90;1.00
14401;DHT22;7285;50.894;5.462;2022-10-04T16:51:38;16.80;1.00
14401;DHT22;7285;50.894;5.462;2022-10-04T16:54:39;16.70;1.00
14401;DHT22;7285;50.894;5.462;2022-10-04T16:57:13;16.60;1.00
14401;DHT22;7285;50.894;5.462;2022-10-04T16:59:46;16.50;1.00
14401;DHT22;7285;50.894;5.462;2022-10-04T17:02:56;16.30;1.00
14401;DHT22;7285;50.894;5.462;2022-10-04T17:05:48;16.30;4.40
14401;DHT22;7285;50.894;5.462;2022-10-04T17:08:45;16.10;1.00
14401;DHT22;7285;50.894;5.462;2022-10-04T17:11:27;15.90;53.30
14401;DHT22;7285;50.894;5.462;2022-10-04T17:14:00;15.80;63.00
14401;DHT22;7285;50.894;5.462;2022-10-04T17:16:35;15.70;99.90
14401;DHT22;7285;50.894;5.462;2022-10-04T17:19:19;15.60;99.90
14401;DHT22;7285;50.894;5.462;2022-10-04T17:21:56;15.50;99.90
14401;DHT22;7285;50.894;5.462;2022-10-04T17:24:38;15.50;99.90
14401;DHT22;7285;50.894;5.462;2022-10-04T17:27:24;15.30;99.90
14401;DHT22;7285;50.894;5.462;2022-10-04T17:30:09;15.10;99.90
14401;DHT22;7285;50.894;5.462;2022-10-04T17:32:47;15.00;99.90
14401;DHT22;7285;50.894;5.462;2022-10-04T17:38:43;14.80;1.00
14401;DHT22;7285;50.894;5.462;2022-10-04T17:41:17;14.70;1.00
14401;DHT22;7285;50.894;5.462;2022-10-04T17:44:15;14.60;1.00
14401;DHT22;7285;50.894;5.462;2022-10-04T17:46:51;14.40;1.00
14401;DHT22;7285;50.894;5.462;2022-10-04T17:49:28;14.30;1.00
14401;DHT22;7285;50.894;5.462;2022-10-04T17:52:18;14.20;1.00
14401;DHT22;7285;50.894;5.462;2022-10-04T17:55:12;14.10;1.00
14401;DHT22;7285;50.894;5.462;2022-10-04T17:57:49;14.00;1.00
14401;DHT22;7285;50.894;5.462;2022-10-04T18:00:19;13.90;12.10
14401;DHT22;7285;50.894;5.462;2022-10-04T18:03:09;13.80;99.90
14401;DHT22;7285;50.894;5.462;2022-10-04T18:05:46;13.70;99.90
14401;DHT22;7285;50.894;5.462;2022-10-04T18:08:23;13.70;99.90
14401;DHT22;7285;50.894;5.462;2022-10-04T18:10:55;13.60;99.90
14401;DHT22;7285;50.894;5.462;2022-10-04T18:13:27;13.50;99.90
14401;DHT22;7285;50.894;5.462;2022-10-04T18:16:00;13.50;1.00
14401;DHT22;7285;50.894;5.462;2022-10-04T18:18:37;13.40;1.00
14401;DHT22;7285;50.894;5.462;2022-10-04T18:21:18;13.30;1.00
14401;DHT22;7285;50.894;5.462;2022-10-04T18:23:57;13.20;1.00
14401;DHT22;7285;50.894;5.462;2022-10-04T18:26:26;13.10;1.00
14401;DHT22;7285;50.894;5.462;2022-10-04T18:28:54;13.10;1.00
14401;DHT22;7285;50.894;5.462;2022-10-04T18:31:31;13.00;1.00
14401;DHT22;7285;50.894;5.462;2022-10-04T18:34:18;13.00;1.00
14401;DHT22;7285;50.894;5.462;2022-10-04T18:37:03;12.90;1.00
14401;DHT22;7285;50.894;5.462;2022-10-04T18:39:43;12.80;1.00
14401;DHT22;7285;50.894;5.462;2022-10-04T18:42:18;12.70;22.10
14401;DHT22;7285;50.894;5.462;2022-10-04T18:44:55;12.70;99.90
14401;DHT22;7285;50.894;5.462;2022-10-04T18:47:29;12.70;99.90
14401;DHT22;7285;50.894;5.462;2022-10-04T18:50:00;12.60;1.00
14401;DHT22;7285;50.894;5.462;2022-10-04T18:52:37;12.50;1.00
14401;DHT22;7285;50.894;5.462;2022-10-04T18:55:20;12.50;1.00
14401;DHT22;7285;50.894;5.462;2022-10-04T18:58:00;12.50;1.00
14401;DHT22;7285;50.894;5.462;2022-10-04T19:00:51;12.50;57.90
14401;DHT22;7285;50.894;5.462;2022-10-04T19:03:42;12.50;99.90
14401;DHT22;7285;50.894;5.462;2022-10-04T19:06:18;12.40;99.90
14401;DHT22;7285;50.894;5.462;2022-10-04T19:08:52;12.40;99.90